createdAt,value
2018-09-27T00:00:13.944Z,99.99
2018-09-27T00:01:13.865Z,99.99
2018-09-27T00:02:13.787Z,99.99
2018-09-27T00:03:13.708Z,99.99
2018-09-27T00:04:13.629Z,99.99
2018-09-27T00:05:13.550Z,99.99
2018-09-27T00:06:13.472Z,99.99
2018-09-27T00:07:13.392Z,99.99
2018-09-27T00:08:13.313Z,99.99
2018-09-27T00:09:13.234Z,99.99
2018-09-27T00:10:13.157Z,99.99
2018-09-27T00:11:13.079Z,99.99
2018-09-27T00:12:12.999Z,99.99
2018-09-27T00:13:12.918Z,99.99
2018-09-27T00:14:12.841Z,99.99
2018-09-27T00:15:12.762Z,99.99
2018-09-27T00:16:12.682Z,99.99
2018-09-27T00:17:12.604Z,99.99
2018-09-27T00:18:12.526Z,99.99
2018-09-27T00:19:12.446Z,99.99
2018-09-27T00:20:12.366Z,99.99
2018-09-27T00:21:12.293Z,99.99
2018-09-27T00:22:12.311Z,99.99
2018-09-27T00:23:12.132Z,99.99
2018-09-27T00:24:12.052Z,99.99
2018-09-27T00:25:11.976Z,99.99
2018-09-27T00:26:11.895Z,99.99
2018-09-27T00:27:11.865Z,99.99
2018-09-27T00:28:11.737Z,99.99
2018-09-27T00:29:11.656Z,99.99
2018-09-27T00:30:11.579Z,99.99
2018-09-27T00:31:11.504Z,99.99
2018-09-27T00:32:11.420Z,99.99
2018-09-27T00:33:11.493Z,99.99
2018-09-27T00:34:11.264Z,99.99
2018-09-27T00:35:11.184Z,99.99
2018-09-27T00:36:11.104Z,99.99
2018-09-27T00:37:11.026Z,99.99
2018-09-27T00:38:11.247Z,99.99
2018-09-27T00:39:10.870Z,99.99
2018-09-27T00:40:10.788Z,99.99
2018-09-27T00:41:10.711Z,99.99
2018-09-27T00:42:10.631Z,99.99
2018-09-27T00:43:10.853Z,99.99
2018-09-27T00:44:10.475Z,99.99
2018-09-27T00:45:10.403Z,99.99
2018-09-27T00:46:10.316Z,99.99
2018-09-27T00:47:10.236Z,99.99
2018-09-27T00:48:10.157Z,99.99
2018-09-27T00:49:10.079Z,99.99
2018-09-27T00:50:09.999Z,99.99
2018-09-27T00:51:09.920Z,99.99
2018-09-27T00:52:09.842Z,99.99
2018-09-27T00:53:09.762Z,99.99
2018-09-27T00:54:09.784Z,99.99
2018-09-27T00:55:09.605Z,99.99
2018-09-27T00:56:09.524Z,99.99
2018-09-27T00:57:09.450Z,99.99
2018-09-27T00:58:09.367Z,99.99
2018-09-27T00:59:09.340Z,99.99
2018-09-27T01:00:09.208Z,99.99
2018-09-27T01:01:09.129Z,99.99
2018-09-27T01:02:09.052Z,99.99
2018-09-27T01:03:08.972Z,99.99
2018-09-27T01:04:08.895Z,99.99
2018-09-27T01:05:08.813Z,99.99
2018-09-27T01:06:08.736Z,99.99
2018-09-27T01:07:08.656Z,99.99
2018-09-27T01:08:08.577Z,99.99
2018-09-27T01:09:08.497Z,99.99
2018-09-27T01:10:08.417Z,99.99
2018-09-27T01:11:08.339Z,99.99
2018-09-27T01:12:08.259Z,99.99
2018-09-27T01:13:08.182Z,99.99
2018-09-27T01:14:08.102Z,99.99
2018-09-27T01:15:08.023Z,99.99
2018-09-27T01:16:07.944Z,99.99
2018-09-27T01:17:07.915Z,99.99
2018-09-27T01:18:07.786Z,99.99
2018-09-27T01:19:07.707Z,99.99
2018-09-27T01:20:07.627Z,99.99
2018-09-27T01:21:07.549Z,99.99
2018-09-27T01:22:07.470Z,99.99
2018-09-27T01:23:07.440Z,99.99
2018-09-27T01:24:07.310Z,99.99
2018-09-27T01:25:07.231Z,99.99
2018-09-27T01:26:07.152Z,99.99
2018-09-27T01:27:07.075Z,99.99
2018-09-27T01:28:06.994Z,99.99
2018-09-27T01:29:06.914Z,99.99
2018-09-27T01:30:06.837Z,99.99
2018-09-27T01:31:06.758Z,99.99
2018-09-27T01:32:06.678Z,99.99
2018-09-27T01:33:06.599Z,99.99
2018-09-27T01:34:06.520Z,99.99
2018-09-27T01:35:06.491Z,99.99
2018-09-27T01:36:06.362Z,99.99
2018-09-27T01:37:06.282Z,99.99
2018-09-27T01:38:06.206Z,99.99
2018-09-27T01:39:06.126Z,99.99
2018-09-27T01:40:06.046Z,99.99
2018-09-27T01:41:05.967Z,99.99
2018-09-27T01:42:05.887Z,99.99
2018-09-27T01:43:05.809Z,99.99
2018-09-27T01:44:05.732Z,99.99
2018-09-27T01:45:05.650Z,99.99
2018-09-27T01:46:05.571Z,99.99
2018-09-27T01:47:05.558Z,99.99
2018-09-27T01:48:05.413Z,99.99
2018-09-27T01:49:05.334Z,99.99
2018-09-27T01:50:05.254Z,99.99
2018-09-27T01:51:05.176Z,99.99
2018-09-27T01:52:05.098Z,99.99
2018-09-27T01:53:05.068Z,99.99
2018-09-27T01:54:11.206Z,99.99
2018-09-27T01:55:04.860Z,99.99
2018-09-27T01:56:04.782Z,99.99
2018-09-27T01:57:04.703Z,99.99
2018-09-27T01:58:04.673Z,99.99
2018-09-27T01:59:04.545Z,99.99
2018-09-27T02:00:04.465Z,99.99
2018-09-27T02:01:04.386Z,99.99
2018-09-27T02:02:04.308Z,99.99
2018-09-27T02:03:04.279Z,99.99
2018-09-27T02:04:04.149Z,99.99
2018-09-27T02:05:04.070Z,99.99
2018-09-27T02:06:04.035Z,99.99
2018-09-27T02:07:03.912Z,99.99
2018-09-27T02:08:03.834Z,99.99
2018-09-27T02:09:03.754Z,99.99
2018-09-27T02:10:03.676Z,99.99
2018-09-27T02:11:03.596Z,99.99
2018-09-27T02:12:03.516Z,99.99
2018-09-27T02:13:03.437Z,99.99
2018-09-27T02:14:03.359Z,99.99
2018-09-27T02:15:03.282Z,99.99
2018-09-27T02:16:03.202Z,99.99
2018-09-27T02:17:03.122Z,99.99
2018-09-27T02:18:03.043Z,99.99
2018-09-27T02:19:02.965Z,99.99
2018-09-27T02:20:02.936Z,99.99
2018-09-27T02:21:02.807Z,99.99
2018-09-27T02:22:02.728Z,99.99
2018-09-27T02:23:02.650Z,99.99
2018-09-27T02:24:02.571Z,99.99
2018-09-27T02:25:02.741Z,99.99
2018-09-27T02:26:02.413Z,99.99
2018-09-27T02:27:02.338Z,99.99
2018-09-27T02:28:02.257Z,99.21
2018-09-27T02:29:02.178Z,99.02
2018-09-27T02:30:02.099Z,99.77
2018-09-27T02:31:02.022Z,99.40
2018-09-27T02:32:01.951Z,99.87
2018-09-27T02:33:01.860Z,99.40
2018-09-27T02:34:01.811Z,99.77
2018-09-27T02:35:01.754Z,99.77
2018-09-27T02:36:01.623Z,99.40
2018-09-27T02:37:01.548Z,99.99
2018-09-27T02:38:01.465Z,99.99
2018-09-27T02:39:01.387Z,99.99
2018-09-27T02:40:01.307Z,99.99
2018-09-27T02:41:01.228Z,99.99
2018-09-27T02:42:01.149Z,99.99
2018-09-27T02:43:01.073Z,99.99
2018-09-27T02:44:00.990Z,99.99
2018-09-27T02:45:00.912Z,99.99
2018-09-27T02:46:00.832Z,99.99
2018-09-27T02:47:00.753Z,99.99
2018-09-27T02:48:00.675Z,99.99
2018-09-27T02:49:00.598Z,99.99
2018-09-27T02:50:00.515Z,99.99
2018-09-27T02:51:00.438Z,99.99
2018-09-27T02:52:00.356Z,99.68
2018-09-27T02:53:00.278Z,99.49
2018-09-27T02:54:00.199Z,99.99
2018-09-27T02:55:00.121Z,99.99
2018-09-27T02:56:00.290Z,99.99
2018-09-27T02:56:59.962Z,99.99
2018-09-27T02:57:59.887Z,99.40
2018-09-27T02:58:59.814Z,99.99
2018-09-27T02:59:59.726Z,99.99
2018-09-27T03:00:59.644Z,99.99
2018-09-27T03:01:59.564Z,99.77
2018-09-27T03:02:59.485Z,99.40
2018-09-27T03:03:59.409Z,98.07
2018-09-27T03:04:59.327Z,98.45
2018-09-27T03:05:59.249Z,99.99
2018-09-27T03:06:59.171Z,99.99
2018-09-27T03:07:59.101Z,99.99
2018-09-27T03:08:59.014Z,99.99
2018-09-27T03:09:58.931Z,99.99
2018-09-27T03:10:58.855Z,99.99
2018-09-27T03:11:58.774Z,99.99
2018-09-27T03:12:58.695Z,99.99
2018-09-27T03:13:58.737Z,99.99
2018-09-27T03:14:58.537Z,99.99
2018-09-27T03:15:58.457Z,99.99
2018-09-27T03:16:58.378Z,99.99
2018-09-27T03:17:58.301Z,99.99
2018-09-27T03:18:58.221Z,99.99
2018-09-27T03:19:58.147Z,99.99
2018-09-27T03:20:58.155Z,99.87
2018-09-27T03:21:57.982Z,98.26
2018-09-27T03:22:57.917Z,99.58
2018-09-27T03:23:57.823Z,99.99
2018-09-27T03:24:57.744Z,99.68
2018-09-27T03:25:57.666Z,99.77
2018-09-27T03:26:57.591Z,99.11
2018-09-27T03:27:57.509Z,98.92
2018-09-27T03:28:57.678Z,98.54
2018-09-27T03:29:57.350Z,98.64
2018-09-27T03:30:57.271Z,98.35
2018-09-27T03:31:57.191Z,98.26
2018-09-27T03:32:57.111Z,98.45
2018-09-27T03:33:57.034Z,98.07
2018-09-27T03:34:56.953Z,98.49
2018-09-27T03:35:56.873Z,97.69
2018-09-27T03:36:56.795Z,97.45
2018-09-27T03:37:56.716Z,97.83
2018-09-27T03:38:56.638Z,98.40
2018-09-27T03:39:56.599Z,98.64
2018-09-27T03:40:56.478Z,97.83
2018-09-27T03:41:56.398Z,97.64
2018-09-27T03:42:56.318Z,97.50
2018-09-27T03:43:56.244Z,97.45
2018-09-27T03:44:56.161Z,98.02
2018-09-27T03:45:56.081Z,98.11
2018-09-27T03:46:56.004Z,98.97
2018-09-27T03:47:55.922Z,98.78
2018-09-27T03:48:55.844Z,98.59
2018-09-27T03:49:55.763Z,98.78
2018-09-27T03:50:55.684Z,97.64
2018-09-27T03:51:55.606Z,98.97
2018-09-27T03:52:55.534Z,99.02
2018-09-27T03:53:55.445Z,98.97
2018-09-27T03:54:55.367Z,98.21
2018-09-27T03:55:55.286Z,98.35
2018-09-27T03:56:55.207Z,98.35
2018-09-27T03:57:55.129Z,97.22
2018-09-27T03:58:55.049Z,97.97
2018-09-27T03:59:54.969Z,97.69
2018-09-27T04:00:54.989Z,97.88
2018-09-27T04:01:54.811Z,98.92
2018-09-27T04:02:54.731Z,99.58
2018-09-27T04:03:54.653Z,99.99
2018-09-27T04:04:54.571Z,99.99
2018-09-27T04:05:54.594Z,99.40
2018-09-27T04:06:54.412Z,99.97
2018-09-27T04:07:54.334Z,99.99
2018-09-27T04:08:54.253Z,99.68
2018-09-27T04:09:54.174Z,99.11
2018-09-27T04:10:54.094Z,98.83
2018-09-27T04:11:54.017Z,99.40
2018-09-27T04:12:53.938Z,98.92
2018-09-27T04:13:53.857Z,99.40
2018-09-27T04:14:53.777Z,99.21
2018-09-27T04:15:53.771Z,99.11
2018-09-27T04:16:53.619Z,97.41
2018-09-27T04:17:53.540Z,97.22
2018-09-27T04:18:53.460Z,96.74
2018-09-27T04:19:53.383Z,97.78
2018-09-27T04:20:53.303Z,97.78
2018-09-27T04:21:53.577Z,99.11
2018-09-27T04:22:53.145Z,99.99
2018-09-27T04:23:53.083Z,99.40
2018-09-27T04:24:52.985Z,99.21
2018-09-27T04:25:52.904Z,99.30
2018-09-27T04:26:52.826Z,99.21
2018-09-27T04:27:52.753Z,98.07
2018-09-27T04:28:52.668Z,98.16
2018-09-27T04:29:52.588Z,98.35
2018-09-27T04:30:52.509Z,98.26
2018-09-27T04:31:52.429Z,99.58
2018-09-27T04:32:52.354Z,98.73
2018-09-27T04:33:52.344Z,97.22
2018-09-27T04:34:52.192Z,98.16
2018-09-27T04:35:52.111Z,98.54
2018-09-27T04:36:52.076Z,98.07
2018-09-27T04:37:51.954Z,97.36
2018-09-27T04:38:51.875Z,97.07
2018-09-27T04:39:51.844Z,98.78
2018-09-27T04:40:51.726Z,97.64
2018-09-27T04:41:51.639Z,97.55
2018-09-27T04:42:51.558Z,97.17
2018-09-27T04:43:51.480Z,97.83
2018-09-27T04:44:51.403Z,97.36
2018-09-27T04:45:51.408Z,95.65
2018-09-27T04:46:51.290Z,97.41
2018-09-27T04:47:51.158Z,98.02
2018-09-27T04:48:51.080Z,98.49
2018-09-27T04:49:51.001Z,99.35
2018-09-27T04:50:50.922Z,98.78
2018-09-27T04:51:50.925Z,98.45
2018-09-27T04:52:50.811Z,98.78
2018-09-27T04:53:50.682Z,99.91
2018-09-27T04:54:50.606Z,98.02
2018-09-27T04:55:50.527Z,97.83
2018-09-27T04:56:50.443Z,97.92
2018-09-27T04:57:50.368Z,97.83
2018-09-27T04:58:50.286Z,97.55
2018-09-27T04:59:50.209Z,96.78
2018-09-27T05:00:50.127Z,96.59
2018-09-27T05:01:50.048Z,96.78
2018-09-27T05:02:49.968Z,96.59
2018-09-27T05:03:49.957Z,97.64
2018-09-27T05:04:49.811Z,96.78
2018-09-27T05:05:49.732Z,97.45
2018-09-27T05:06:49.651Z,98.07
2018-09-27T05:07:49.572Z,96.26
2018-09-27T05:08:49.491Z,96.08
2018-09-27T05:09:49.413Z,95.03
2018-09-27T05:10:49.333Z,95.31
2018-09-27T05:11:49.255Z,96.93
2018-09-27T05:12:49.173Z,98.45
2018-09-27T05:13:49.095Z,98.07
2018-09-27T05:14:49.016Z,96.93
2018-09-27T05:15:48.977Z,97.41
2018-09-27T05:16:48.856Z,97.31
2018-09-27T05:17:48.779Z,96.55
2018-09-27T05:18:48.697Z,96.08
2018-09-27T05:19:48.619Z,97.50
2018-09-27T05:20:48.541Z,97.41
2018-09-27T05:21:48.461Z,96.64
2018-09-27T05:22:48.383Z,95.27
2018-09-27T05:23:48.302Z,94.46
2018-09-27T05:24:48.223Z,94.42
2018-09-27T05:25:48.147Z,95.65
2018-09-27T05:26:48.064Z,95.27
2018-09-27T05:27:47.982Z,95.17
2018-09-27T05:28:47.905Z,94.13
2018-09-27T05:29:47.926Z,95.17
2018-09-27T05:30:47.746Z,94.70
2018-09-27T05:31:47.666Z,95.46
2018-09-27T05:32:47.589Z,95.84
2018-09-27T05:33:47.508Z,94.42
2018-09-27T05:34:47.429Z,94.70
2018-09-27T05:35:47.448Z,94.89
2018-09-27T05:36:47.268Z,93.94
2018-09-27T05:37:47.189Z,93.65
2018-09-27T05:38:47.110Z,93.18
2018-09-27T05:39:47.030Z,94.23
2018-09-27T05:40:46.951Z,95.17
2018-09-27T05:41:46.872Z,94.79
2018-09-27T05:42:46.792Z,94.03
2018-09-27T05:43:46.712Z,95.84
2018-09-27T05:44:46.634Z,95.60
2018-09-27T05:45:46.554Z,93.89
2018-09-27T05:46:46.478Z,95.51
2018-09-27T05:47:46.397Z,95.89
2018-09-27T05:48:46.315Z,95.22
2018-09-27T05:49:46.289Z,94.37
2018-09-27T05:50:46.157Z,95.31
2018-09-27T05:51:46.082Z,94.74
2018-09-27T05:52:45.998Z,94.46
2018-09-27T05:53:45.918Z,93.70
2018-09-27T05:54:45.842Z,93.80
2018-09-27T05:55:45.824Z,93.32
2018-09-27T05:56:45.679Z,92.37
2018-09-27T05:57:45.600Z,91.99
2018-09-27T05:58:45.521Z,91.52
2018-09-27T05:59:45.440Z,91.24
2018-09-27T06:00:45.363Z,91.52
2018-09-27T06:01:45.287Z,91.52
2018-09-27T06:02:45.202Z,90.76
2018-09-27T06:03:45.125Z,90.57
2018-09-27T06:04:45.044Z,90.76
2018-09-27T06:05:44.964Z,91.61
2018-09-27T06:06:44.898Z,91.04
2018-09-27T06:07:44.805Z,91.71
2018-09-27T06:08:44.727Z,91.61
2018-09-27T06:09:44.648Z,91.42
2018-09-27T06:10:44.568Z,91.33
2018-09-27T06:11:44.587Z,92.18
2018-09-27T06:12:44.410Z,91.71
2018-09-27T06:13:44.330Z,92.47
2018-09-27T06:14:44.251Z,91.99
2018-09-27T06:15:44.254Z,91.99
2018-09-27T06:16:44.091Z,91.52
2018-09-27T06:17:44.061Z,92.47
2018-09-27T06:18:43.932Z,92.28
2018-09-27T06:19:43.857Z,92.85
2018-09-27T06:20:43.775Z,94.08
2018-09-27T06:21:43.778Z,92.75
2018-09-27T06:22:43.617Z,92.66
2018-09-27T06:23:43.536Z,92.37
2018-09-27T06:24:43.457Z,92.85
2018-09-27T06:25:43.379Z,92.66
2018-09-27T06:26:43.303Z,93.80
2018-09-27T06:27:43.282Z,95.22
2018-09-27T06:28:43.140Z,93.51
2018-09-27T06:29:43.062Z,94.84
2018-09-27T06:30:42.984Z,92.94
2018-09-27T06:31:42.902Z,92.66
2018-09-27T06:32:42.825Z,91.71
2018-09-27T06:33:42.801Z,92.56
2018-09-27T06:34:42.667Z,91.24
2018-09-27T06:35:42.587Z,90.76
2018-09-27T06:36:42.508Z,92.75
2018-09-27T06:37:42.530Z,93.37
2018-09-27T06:38:42.414Z,91.85
2018-09-27T06:39:42.271Z,91.85
2018-09-27T06:40:42.195Z,91.56
2018-09-27T06:41:42.117Z,91.85
2018-09-27T06:42:42.050Z,91.47
2018-09-27T06:43:41.956Z,91.56
2018-09-27T06:44:42.003Z,91.94
2018-09-27T06:45:41.800Z,91.75
2018-09-27T06:46:41.720Z,92.23
2018-09-27T06:47:41.641Z,93.94
2018-09-27T06:48:41.612Z,95.46
2018-09-27T06:49:41.484Z,94.70
2018-09-27T06:50:41.467Z,95.46
2018-09-27T06:51:41.326Z,94.89
2018-09-27T06:52:41.347Z,94.42
2018-09-27T06:53:41.169Z,93.84
2018-09-27T06:54:41.153Z,93.46
2018-09-27T06:55:41.151Z,93.84
2018-09-27T06:56:41.020Z,92.99
2018-09-27T06:57:40.854Z,93.65
2018-09-27T06:58:40.777Z,93.99
2018-09-27T06:59:40.698Z,92.75
2018-09-27T07:00:40.624Z,94.18
2018-09-27T07:01:40.541Z,94.08
2018-09-27T07:02:40.582Z,93.60
2018-09-27T07:03:40.384Z,93.51
2018-09-27T07:04:40.307Z,94.46
2018-09-27T07:05:40.228Z,93.60
2018-09-27T07:06:40.150Z,94.56
2018-09-27T07:07:40.173Z,94.46
2018-09-27T07:08:40.032Z,93.32
2018-09-27T07:09:39.915Z,93.89
2018-09-27T07:10:39.838Z,94.84
2018-09-27T07:11:39.759Z,94.70
2018-09-27T07:12:39.731Z,95.08
2018-09-27T07:13:39.602Z,96.12
2018-09-27T07:14:39.597Z,95.84
2018-09-27T07:15:39.589Z,95.65
2018-09-27T07:16:39.368Z,95.75
2018-09-27T07:17:39.292Z,98.79
2018-09-27T07:18:39.253Z,96.79
2018-09-27T07:19:39.136Z,97.55
2018-09-27T07:20:39.130Z,98.55
2018-09-27T07:21:38.980Z,97.41
2018-09-27T07:22:38.902Z,97.50
2018-09-27T07:23:38.823Z,99.50
2018-09-27T07:24:38.750Z,99.60
2018-09-27T07:25:38.672Z,99.99
2018-09-27T07:26:38.704Z,99.99
2018-09-27T07:27:38.514Z,99.99
2018-09-27T07:28:38.437Z,99.99
2018-09-27T07:29:38.360Z,99.99
2018-09-27T07:30:38.282Z,99.99
2018-09-27T07:31:38.207Z,99.99
2018-09-27T07:32:38.166Z,99.99
2018-09-27T07:33:38.052Z,99.99
2018-09-27T07:34:37.975Z,99.99
2018-09-27T07:35:37.899Z,99.99
2018-09-27T07:36:37.839Z,99.99
2018-09-27T07:37:37.744Z,99.99
2018-09-27T07:38:37.739Z,99.99
2018-09-27T07:39:37.589Z,99.99
2018-09-27T07:40:37.513Z,99.99
2018-09-27T07:41:37.439Z,99.99
2018-09-27T07:42:37.378Z,99.99
2018-09-27T07:43:37.335Z,99.99
2018-09-27T07:44:37.229Z,99.99
2018-09-27T07:45:37.136Z,99.99
2018-09-27T07:46:37.056Z,99.99
2018-09-27T07:47:36.979Z,99.99
2018-09-27T07:48:36.911Z,99.99
2018-09-27T07:49:36.879Z,99.99
2018-09-27T07:50:36.790Z,99.99
2018-09-27T07:51:36.675Z,99.99
2018-09-27T07:52:36.597Z,99.99
2018-09-27T07:53:36.522Z,99.99
2018-09-27T07:54:36.631Z,99.99
2018-09-27T07:55:36.369Z,99.99
2018-09-27T07:56:36.328Z,99.99
2018-09-27T07:57:36.218Z,99.99
2018-09-27T07:58:36.143Z,99.99
2018-09-27T07:59:36.065Z,99.99
2018-09-27T08:00:35.992Z,99.99
2018-09-27T08:01:35.915Z,99.99
2018-09-27T08:02:35.860Z,99.99
2018-09-27T08:03:35.763Z,99.99
2018-09-27T08:04:35.689Z,99.99
2018-09-27T08:05:35.617Z,99.99
2018-09-27T08:06:35.538Z,98.47
2018-09-27T08:07:35.463Z,96.98
2018-09-27T08:08:35.488Z,95.56
2018-09-27T08:09:35.315Z,94.89
2018-09-27T08:10:35.238Z,94.46
2018-09-27T08:11:35.251Z,94.36
2018-09-27T08:12:35.088Z,92.83
2018-09-27T08:13:35.014Z,92.07
2018-09-27T08:14:34.947Z,91.78
2018-09-27T08:15:34.862Z,91.59
2018-09-27T08:16:34.788Z,90.73
2018-09-27T08:17:34.715Z,92.36
2018-09-27T08:18:34.639Z,94.36
2018-09-27T08:19:34.569Z,94.65
2018-09-27T08:20:34.591Z,94.84
2018-09-27T08:21:34.416Z,95.51
2018-09-27T08:22:34.343Z,92.93
2018-09-27T08:23:34.266Z,92.55
2018-09-27T08:24:34.192Z,90.78
2018-09-27T08:25:34.120Z,90.20
2018-09-27T08:26:34.101Z,90.20
2018-09-27T08:27:33.969Z,91.64
2018-09-27T08:28:33.897Z,91.25
2018-09-27T08:29:33.822Z,87.15
2018-09-27T08:30:33.751Z,86.67
2018-09-27T08:31:33.672Z,86.19
2018-09-27T08:32:33.656Z,88.68
2018-09-27T08:33:33.526Z,90.30
2018-09-27T08:34:33.452Z,89.53
2018-09-27T08:35:33.377Z,88.87
2018-09-27T08:36:33.304Z,88.48
2018-09-27T08:37:33.229Z,90.11
2018-09-27T08:38:33.200Z,89.34
2018-09-27T08:39:33.081Z,90.34
2018-09-27T08:40:33.007Z,90.34
2018-09-27T08:41:32.934Z,91.20
2018-09-27T08:42:32.859Z,91.20
2018-09-27T08:43:32.784Z,91.02
2018-09-27T08:44:32.772Z,90.92
2018-09-27T08:45:32.870Z,91.97
2018-09-27T08:46:32.566Z,91.78
2018-09-27T08:47:32.488Z,89.67
2018-09-27T08:48:32.414Z,91.11
2018-09-27T08:49:32.342Z,90.25
2018-09-27T08:50:32.268Z,89.96
2018-09-27T08:51:32.202Z,89.39
2018-09-27T08:52:32.119Z,89.20
2018-09-27T08:53:32.046Z,88.81
2018-09-27T08:54:31.973Z,87.66
2018-09-27T08:55:32.033Z,87.43
2018-09-27T08:56:32.007Z,87.90
2018-09-27T08:57:31.766Z,86.57
2018-09-27T08:58:31.676Z,85.32
2018-09-27T08:59:31.602Z,86.18
2018-09-27T09:00:31.529Z,86.28
2018-09-27T09:01:31.509Z,85.99
2018-09-27T09:02:31.382Z,86.37
2018-09-27T09:03:31.404Z,87.23
2018-09-27T09:04:31.233Z,86.57
2018-09-27T09:05:31.161Z,88.57
2018-09-27T09:06:31.089Z,88.57
2018-09-27T09:07:31.120Z,88.67
2018-09-27T09:08:30.939Z,88.09
2018-09-27T09:09:30.870Z,89.67
2018-09-27T09:10:30.792Z,89.29
2018-09-27T09:11:30.718Z,88.81
2018-09-27T09:12:30.646Z,89.48
2018-09-27T09:13:30.652Z,90.91
2018-09-27T09:14:30.499Z,90.53
2018-09-27T09:15:30.428Z,89.19
2018-09-27T09:16:30.352Z,89.86
2018-09-27T09:17:30.283Z,88.95
2018-09-27T09:18:30.206Z,89.52
2018-09-27T09:19:30.169Z,90.09
2018-09-27T09:20:30.058Z,90.72
2018-09-27T09:21:30.026Z,91.34
2018-09-27T09:22:29.913Z,90.58
2018-09-27T09:23:29.889Z,90.19
2018-09-27T09:24:29.776Z,91.34
2018-09-27T09:25:29.735Z,88.85
2018-09-27T09:26:29.620Z,89.52
2018-09-27T09:27:29.601Z,88.80
2018-09-27T09:28:29.524Z,86.98
2018-09-27T09:29:29.493Z,87.94
2018-09-27T09:30:29.330Z,87.37
2018-09-27T09:31:29.255Z,85.35
2018-09-27T09:32:29.184Z,83.44
2018-09-27T09:33:29.143Z,84.49
2018-09-27T09:34:29.035Z,83.53
2018-09-27T09:35:29.017Z,81.43
2018-09-27T09:36:28.893Z,81.90
2018-09-27T09:37:28.819Z,80.60
2018-09-27T09:38:28.743Z,80.47
2018-09-27T09:39:28.671Z,79.55
2018-09-27T09:40:28.599Z,79.83
2018-09-27T09:41:28.525Z,78.40
2018-09-27T09:42:28.450Z,79.74
2018-09-27T09:43:28.378Z,77.15
2018-09-27T09:44:28.305Z,76.39
2018-09-27T09:45:28.233Z,75.90
2018-09-27T09:46:28.161Z,75.71
2018-09-27T09:47:28.087Z,76.62
2018-09-27T09:48:28.015Z,76.62
2018-09-27T09:49:27.993Z,76.62
2018-09-27T09:50:27.870Z,76.14
2018-09-27T09:51:27.796Z,75.85
2018-09-27T09:52:27.724Z,75.95
2018-09-27T09:53:27.651Z,74.06
2018-09-27T09:54:27.578Z,74.06
2018-09-27T09:55:27.506Z,72.24
2018-09-27T09:56:27.435Z,72.53
2018-09-27T09:57:27.361Z,71.95
2018-09-27T09:58:27.289Z,72.63
2018-09-27T09:59:27.220Z,73.10
2018-09-27T10:00:27.144Z,72.63
2018-09-27T10:01:27.072Z,72.81
2018-09-27T10:02:27.005Z,72.56
2018-09-27T10:03:26.927Z,72.18
2018-09-27T10:04:26.855Z,72.85
2018-09-27T10:05:26.782Z,72.75
2018-09-27T10:06:26.711Z,72.56
2018-09-27T10:07:26.636Z,72.28
2018-09-27T10:08:26.569Z,70.55
2018-09-27T10:09:26.493Z,69.87
2018-09-27T10:10:26.420Z,68.44
2018-09-27T10:11:26.350Z,69.20
2018-09-27T10:12:26.274Z,70.07
2018-09-27T10:13:26.205Z,70.20
2018-09-27T10:14:26.133Z,70.10
2018-09-27T10:15:26.060Z,68.76
2018-09-27T10:16:25.987Z,68.08
2018-09-27T10:17:25.927Z,68.08
2018-09-27T10:18:25.844Z,67.70
2018-09-27T10:19:25.771Z,67.22
2018-09-27T10:20:25.699Z,66.07
2018-09-27T10:21:25.628Z,66.64
2018-09-27T10:22:25.559Z,67.13
2018-09-27T10:23:25.482Z,67.22
2018-09-27T10:24:25.411Z,65.59
2018-09-27T10:25:25.342Z,65.69
2018-09-27T10:26:25.268Z,65.49
2018-09-27T10:27:25.348Z,65.69
2018-09-27T10:28:25.124Z,65.49
2018-09-27T10:29:25.052Z,65.49
2018-09-27T10:30:24.982Z,63.76
2018-09-27T10:31:24.907Z,63.76
2018-09-27T10:32:24.837Z,63.76
2018-09-27T10:33:24.764Z,64.28
2018-09-27T10:34:24.702Z,64.09
2018-09-27T10:35:24.621Z,63.41
2018-09-27T10:36:24.553Z,62.84
2018-09-27T10:37:24.479Z,62.93
2018-09-27T10:38:24.407Z,62.84
2018-09-27T10:39:24.336Z,64.09
2018-09-27T10:40:24.263Z,63.70
2018-09-27T10:41:24.192Z,62.84
2018-09-27T10:42:24.120Z,63.32
2018-09-27T10:43:24.048Z,62.96
2018-09-27T10:44:23.977Z,61.91
2018-09-27T10:45:23.906Z,62.19
2018-09-27T10:46:23.837Z,63.73
2018-09-27T10:47:23.863Z,62.77
2018-09-27T10:48:23.693Z,60.66
2018-09-27T10:49:23.621Z,60.46
2018-09-27T10:50:23.550Z,60.27
2018-09-27T10:51:23.501Z,61.04
2018-09-27T10:52:23.407Z,61.04
2018-09-27T10:53:23.338Z,61.36
2018-09-27T10:54:23.266Z,61.07
2018-09-27T10:55:23.193Z,61.84
2018-09-27T10:56:23.123Z,60.39
2018-09-27T10:57:23.052Z,59.72
2018-09-27T10:58:22.982Z,59.75
2018-09-27T10:59:22.916Z,60.17
2018-09-27T11:00:22.839Z,58.47
2018-09-27T11:01:22.770Z,57.05
2018-09-27T11:02:22.699Z,55.60
2018-09-27T11:03:22.629Z,54.86
2018-09-27T11:04:22.561Z,54.76
2018-09-27T11:05:22.488Z,53.25
2018-09-27T11:06:22.420Z,52.86
2018-09-27T11:07:22.349Z,53.03
2018-09-27T11:08:22.330Z,52.59
2018-09-27T11:09:22.211Z,51.92
2018-09-27T11:10:22.143Z,50.23
2018-09-27T11:11:22.194Z,49.65
2018-09-27T11:12:22.007Z,48.69
2018-09-27T11:13:21.940Z,49.87
2018-09-27T11:14:21.873Z,52.63
2018-09-27T11:15:21.804Z,48.25
2018-09-27T11:16:21.737Z,47.58
2018-09-27T11:17:21.671Z,48.47
2018-09-27T11:18:21.605Z,47.86
2018-09-27T11:19:21.539Z,48.25
2018-09-27T11:20:21.472Z,47.19
2018-09-27T11:21:21.406Z,47.28
2018-09-27T11:22:21.341Z,48.47
2018-09-27T11:23:21.274Z,49.07
2018-09-27T11:24:21.208Z,45.20
2018-09-27T11:25:21.143Z,45.20
2018-09-27T11:26:21.077Z,46.08
2018-09-27T11:27:21.012Z,45.57
2018-09-27T11:28:20.947Z,45.93
2018-09-27T11:29:20.883Z,47.04
2018-09-27T11:30:20.818Z,45.28
2018-09-27T11:31:20.752Z,45.30
2018-09-27T11:32:20.690Z,44.93
2018-09-27T11:33:20.622Z,44.04
2018-09-27T11:34:20.558Z,44.60
2018-09-27T11:35:20.493Z,45.28
2018-09-27T11:36:20.495Z,44.04
2018-09-27T11:37:20.363Z,46.00
2018-09-27T11:38:20.300Z,43.79
2018-09-27T11:39:20.234Z,43.52
2018-09-27T11:40:20.170Z,42.46
2018-09-27T11:41:20.106Z,42.17
2018-09-27T11:42:20.051Z,41.80
2018-09-27T11:43:19.978Z,41.76
2018-09-27T11:44:19.914Z,42.46
2018-09-27T11:45:19.851Z,41.14
2018-09-27T11:46:19.790Z,40.56
2018-09-27T11:47:19.723Z,40.01
2018-09-27T11:48:19.663Z,38.19
2018-09-27T11:49:19.683Z,38.48
2018-09-27T11:50:19.615Z,38.77
2018-09-27T11:51:19.477Z,38.07
2018-09-27T11:52:19.413Z,40.44
2018-09-27T11:53:19.351Z,37.41
2018-09-27T11:54:19.290Z,37.24
2018-09-27T11:55:19.229Z,36.38
2018-09-27T11:56:19.166Z,36.59
2018-09-27T11:57:19.105Z,35.61
2018-09-27T11:58:19.047Z,37.29
2018-09-27T11:59:18.985Z,37.71
2018-09-27T12:00:18.924Z,35.67
2018-09-27T12:01:18.870Z,33.34
2018-09-27T12:02:18.806Z,33.34
2018-09-27T12:03:18.744Z,33.04
2018-09-27T12:04:18.687Z,34.52
2018-09-27T12:05:18.628Z,35.82
2018-09-27T12:06:18.571Z,33.28
2018-09-27T12:07:18.521Z,33.17
2018-09-27T12:08:18.450Z,32.43
2018-09-27T12:09:18.393Z,34.16
2018-09-27T12:10:18.334Z,35.36
2018-09-27T12:11:18.277Z,36.86
2018-09-27T12:12:18.220Z,34.12
2018-09-27T12:13:18.220Z,33.67
2018-09-27T12:14:18.105Z,32.68
2018-09-27T12:15:18.043Z,32.53
2018-09-27T12:16:17.985Z,33.80
2018-09-27T12:17:17.928Z,33.90
2018-09-27T12:18:17.870Z,32.92
2018-09-27T12:19:17.812Z,33.72
2018-09-27T12:20:17.858Z,33.70
2018-09-27T12:21:17.698Z,34.86
2018-09-27T12:22:17.644Z,34.11
2018-09-27T12:23:17.585Z,34.48
2018-09-27T12:24:17.525Z,33.61
2018-09-27T12:25:17.468Z,33.59
2018-09-27T12:26:17.411Z,35.18
2018-09-27T12:27:17.354Z,33.62
2018-09-27T12:28:17.297Z,33.78
2018-09-27T12:29:17.244Z,34.06
2018-09-27T12:30:17.183Z,34.27
2018-09-27T12:31:17.124Z,33.14
2018-09-27T12:32:17.066Z,33.59
2018-09-27T12:33:17.010Z,34.94
2018-09-27T12:34:16.952Z,33.98
2018-09-27T12:35:16.994Z,33.69
2018-09-27T12:36:16.836Z,33.51
2018-09-27T12:37:16.779Z,33.51
2018-09-27T12:38:16.820Z,34.56
2018-09-27T12:39:16.664Z,34.09
2018-09-27T12:40:16.606Z,33.61
2018-09-27T12:41:16.549Z,33.02
2018-09-27T12:42:16.640Z,32.65
2018-09-27T12:43:16.434Z,35.00
2018-09-27T12:44:16.376Z,32.24
2018-09-27T12:45:16.364Z,32.84
2018-09-27T12:46:16.269Z,33.56
2018-09-27T12:47:16.204Z,31.35
2018-09-27T12:48:16.177Z,32.92
2018-09-27T12:49:16.090Z,31.20
2018-09-27T12:50:16.037Z,30.93
2018-09-27T12:51:16.280Z,30.52